sensor_id;sensor_type;location;lat;lon;timestamp;temperature;humidity
83685;DHT22;73666;51.304;5.776;2024-03-02T00:03:23;8.30;65.90
83685;DHT22;73666;51.304;5.776;2024-03-02T00:08:27;8.30;65.90
83685;DHT22;73666;51.304;5.776;2024-03-02T00:13:31;8.40;65.80
83685;DHT22;73666;51.304;5.776;2024-03-02T00:18:34;8.40;65.80
83685;DHT22;73666;51.304;5.776;2024-03-02T00:23:35;8.40;65.70
83685;DHT22;73666;51.304;5.776;2024-03-02T00:28:37;8.50;65.70
83685;DHT22;73666;51.304;5.776;2024-03-02T00:33:44;8.60;65.60
83685;DHT22;73666;51.304;5.776;2024-03-02T00:38:49;8.60;65.70
83685;DHT22;73666;51.304;5.776;2024-03-02T00:44:06;8.60;65.70
83685;DHT22;73666;51.304;5.776;2024-03-02T00:49:20;8.60;65.80
83685;DHT22;73666;51.304;5.776;2024-03-02T00:54:25;8.60;67.00
83685;DHT22;73666;51.304;5.776;2024-03-02T00:59:27;8.40;67.50
83685;DHT22;73666;51.304;5.776;2024-03-02T01:04:28;8.30;68.20
83685;DHT22;73666;51.304;5.776;2024-03-02T01:09:29;8.10;68.70
83685;DHT22;73666;51.304;5.776;2024-03-02T01:14:30;8.00;69.30
83685;DHT22;73666;51.304;5.776;2024-03-02T01:19:31;8.00;69.50
83685;DHT22;73666;51.304;5.776;2024-03-02T01:24:33;7.80;69.70
83685;DHT22;73666;51.304;5.776;2024-03-02T01:29:35;7.80;69.80
83685;DHT22;73666;51.304;5.776;2024-03-02T01:34:38;7.70;69.90
83685;DHT22;73666;51.304;5.776;2024-03-02T01:39:40;7.60;70.00
83685;DHT22;73666;51.304;5.776;2024-03-02T01:44:41;7.60;70.20
83685;DHT22;73666;51.304;5.776;2024-03-02T01:49:42;7.50;70.40
83685;DHT22;73666;51.304;5.776;2024-03-02T01:54:44;7.50;70.50
83685;DHT22;73666;51.304;5.776;2024-03-02T01:59:47;7.50;70.50
83685;DHT22;73666;51.304;5.776;2024-03-02T02:04:51;7.40;70.60
83685;DHT22;73666;51.304;5.776;2024-03-02T02:09:52;7.40;70.70
83685;DHT22;73666;51.304;5.776;2024-03-02T02:14:57;7.40;70.70
83685;DHT22;73666;51.304;5.776;2024-03-02T02:20:02;7.40;70.80
83685;DHT22;73666;51.304;5.776;2024-03-02T02:25:06;7.40;70.80
83685;DHT22;73666;51.304;5.776;2024-03-02T02:30:08;7.30;70.70
83685;DHT22;73666;51.304;5.776;2024-03-02T02:35:13;7.30;71.00
83685;DHT22;73666;51.304;5.776;2024-03-02T02:40:14;7.20;71.20
83685;DHT22;73666;51.304;5.776;2024-03-02T02:45:15;7.20;71.50
83685;DHT22;73666;51.304;5.776;2024-03-02T02:50:16;7.20;71.60
83685;DHT22;73666;51.304;5.776;2024-03-02T02:55:17;7.20;71.80
83685;DHT22;73666;51.304;5.776;2024-03-02T03:00:18;7.10;71.80
83685;DHT22;73666;51.304;5.776;2024-03-02T03:05:20;7.00;71.90
83685;DHT22;73666;51.304;5.776;2024-03-02T03:10:21;7.00;71.90
83685;DHT22;73666;51.304;5.776;2024-03-02T03:15:23;7.00;71.90
83685;DHT22;73666;51.304;5.776;2024-03-02T03:20:24;7.00;71.80
83685;DHT22;73666;51.304;5.776;2024-03-02T03:25:25;6.90;71.80
83685;DHT22;73666;51.304;5.776;2024-03-02T03:30:26;6.90;71.80
83685;DHT22;73666;51.304;5.776;2024-03-02T03:35:27;6.90;71.80
83685;DHT22;73666;51.304;5.776;2024-03-02T03:40:27;6.90;71.70
83685;DHT22;73666;51.304;5.776;2024-03-02T03:45:28;6.90;71.70
83685;DHT22;73666;51.304;5.776;2024-03-02T03:50:30;6.90;71.80
83685;DHT22;73666;51.304;5.776;2024-03-02T03:55:31;6.90;71.80
83685;DHT22;73666;51.304;5.776;2024-03-02T04:00:32;6.90;71.80
83685;DHT22;73666;51.304;5.776;2024-03-02T04:05:33;6.80;71.80
83685;DHT22;73666;51.304;5.776;2024-03-02T04:10:33;6.80;71.90
83685;DHT22;73666;51.304;5.776;2024-03-02T04:15:34;6.80;71.80
83685;DHT22;73666;51.304;5.776;2024-03-02T04:20:35;6.80;71.90
83685;DHT22;73666;51.304;5.776;2024-03-02T04:25:36;6.80;71.70
83685;DHT22;73666;51.304;5.776;2024-03-02T04:30:37;6.80;71.70
83685;DHT22;73666;51.304;5.776;2024-03-02T04:35:37;6.80;71.80
83685;DHT22;73666;51.304;5.776;2024-03-02T04:40:38;6.70;71.80
83685;DHT22;73666;51.304;5.776;2024-03-02T04:45:42;6.60;71.90
83685;DHT22;73666;51.304;5.776;2024-03-02T04:50:43;6.50;72.10
83685;DHT22;73666;51.304;5.776;2024-03-02T04:55:44;6.50;72.10
83685;DHT22;73666;51.304;5.776;2024-03-02T05:00:45;6.50;72.10
83685;DHT22;73666;51.304;5.776;2024-03-02T05:05:47;6.50;72.20
83685;DHT22;73666;51.304;5.776;2024-03-02T05:10:48;6.50;72.20
83685;DHT22;73666;51.304;5.776;2024-03-02T05:15:49;6.50;72.20
83685;DHT22;73666;51.304;5.776;2024-03-02T05:20:50;6.50;72.30
83685;DHT22;73666;51.304;5.776;2024-03-02T05:25:50;6.40;72.40
83685;DHT22;73666;51.304;5.776;2024-03-02T05:30:51;6.40;72.50
83685;DHT22;73666;51.304;5.776;2024-03-02T05:35:52;6.40;72.60
83685;DHT22;73666;51.304;5.776;2024-03-02T05:40:54;6.40;72.60
83685;DHT22;73666;51.304;5.776;2024-03-02T05:45:58;6.40;72.60
83685;DHT22;73666;51.304;5.776;2024-03-02T05:51:00;6.40;72.80
83685;DHT22;73666;51.304;5.776;2024-03-02T05:56:04;6.40;72.70
83685;DHT22;73666;51.304;5.776;2024-03-02T06:01:05;6.20;72.70
83685;DHT22;73666;51.304;5.776;2024-03-02T06:06:14;6.10;72.90
83685;DHT22;73666;51.304;5.776;2024-03-02T06:11:21;5.90;73.10
83685;DHT22;73666;51.304;5.776;2024-03-02T06:16:22;5.80;73.20
83685;DHT22;73666;51.304;5.776;2024-03-02T06:21:25;5.90;73.30
83685;DHT22;73666;51.304;5.776;2024-03-02T06:26:26;5.90;73.20
83685;DHT22;73666;51.304;5.776;2024-03-02T06:31:27;5.90;73.20
83685;DHT22;73666;51.304;5.776;2024-03-02T06:36:29;5.80;73.30
83685;DHT22;73666;51.304;5.776;2024-03-02T06:41:30;5.70;73.20
83685;DHT22;73666;51.304;5.776;2024-03-02T06:46:34;5.70;73.20
83685;DHT22;73666;51.304;5.776;2024-03-02T06:51:35;5.70;73.10
83685;DHT22;73666;51.304;5.776;2024-03-02T06:56:37;5.70;73.00
83685;DHT22;73666;51.304;5.776;2024-03-02T07:01:40;5.70;73.00
83685;DHT22;73666;51.304;5.776;2024-03-02T07:06:40;5.80;72.80
83685;DHT22;73666;51.304;5.776;2024-03-02T07:11:41;5.90;72.60
83685;DHT22;73666;51.304;5.776;2024-03-02T07:16:49;6.20;72.50
83685;DHT22;73666;51.304;5.776;2024-03-02T07:21:50;6.90;71.80
83685;DHT22;73666;51.304;5.776;2024-03-02T07:26:51;8.10;70.20
83685;DHT22;73666;51.304;5.776;2024-03-02T07:31:56;9.10;68.50
83685;DHT22;73666;51.304;5.776;2024-03-02T07:36:58;9.40;67.60
83685;DHT22;73666;51.304;5.776;2024-03-02T07:42:00;9.20;67.90
83685;DHT22;73666;51.304;5.776;2024-03-02T07:47:01;9.00;68.30
83685;DHT22;73666;51.304;5.776;2024-03-02T07:52:02;8.80;68.50
83685;DHT22;73666;51.304;5.776;2024-03-02T07:57:04;8.80;68.50
83685;DHT22;73666;51.304;5.776;2024-03-02T08:02:09;9.10;68.00
83685;DHT22;73666;51.304;5.776;2024-03-02T08:07:12;10.00;66.60
83685;DHT22;73666;51.304;5.776;2024-03-02T08:12:14;9.80;66.40
83685;DHT22;73666;51.304;5.776;2024-03-02T08:17:20;9.40;66.60
83685;DHT22;73666;51.304;5.776;2024-03-02T08:22:21;9.60;66.60
83685;DHT22;73666;51.304;5.776;2024-03-02T08:27:22;10.20;65.50
83685;DHT22;73666;51.304;5.776;2024-03-02T08:32:22;11.10;64.00
83685;DHT22;73666;51.304;5.776;2024-03-02T08:37:23;12.00;62.60
83685;DHT22;73666;51.304;5.776;2024-03-02T08:42:24;12.10;61.90
83685;DHT22;73666;51.304;5.776;2024-03-02T08:47:25;11.60;62.10
83685;DHT22;73666;51.304;5.776;2024-03-02T08:52:27;11.30;62.20
83685;DHT22;73666;51.304;5.776;2024-03-02T08:57:30;11.20;62.50
83685;DHT22;73666;51.304;5.776;2024-03-02T09:02:31;11.10;62.10
83685;DHT22;73666;51.304;5.776;2024-03-02T09:07:34;11.40;61.90
83685;DHT22;73666;51.304;5.776;2024-03-02T09:12:35;11.50;61.40
83685;DHT22;73666;51.304;5.776;2024-03-02T09:17:36;12.30;60.70
83685;DHT22;73666;51.304;5.776;2024-03-02T09:22:37;12.90;59.60
83685;DHT22;73666;51.304;5.776;2024-03-02T09:27:39;12.90;59.00
83685;DHT22;73666;51.304;5.776;2024-03-02T09:32:47;12.70;59.30
83685;DHT22;73666;51.304;5.776;2024-03-02T09:37:48;12.00;60.60
83685;DHT22;73666;51.304;5.776;2024-03-02T09:42:49;11.60;61.00
83685;DHT22;73666;51.304;5.776;2024-03-02T09:47:54;11.50;61.80
83685;DHT22;73666;51.304;5.776;2024-03-02T09:52:55;11.90;61.20
83685;DHT22;73666;51.304;5.776;2024-03-02T09:58:01;11.70;61.00
83685;DHT22;73666;51.304;5.776;2024-03-02T10:03:04;11.40;61.40
83685;DHT22;73666;51.304;5.776;2024-03-02T10:08:06;11.00;61.70
83685;DHT22;73666;51.304;5.776;2024-03-02T10:13:09;10.90;61.80
83685;DHT22;73666;51.304;5.776;2024-03-02T10:18:13;10.90;62.30
83685;DHT22;73666;51.304;5.776;2024-03-02T10:23:20;11.00;62.40
83685;DHT22;73666;51.304;5.776;2024-03-02T10:28:21;10.90;61.90
83685;DHT22;73666;51.304;5.776;2024-03-02T10:33:24;10.90;62.20
83685;DHT22;73666;51.304;5.776;2024-03-02T10:38:25;11.00;62.30
83685;DHT22;73666;51.304;5.776;2024-03-02T10:43:26;11.00;62.30
83685;DHT22;73666;51.304;5.776;2024-03-02T10:48:28;11.00;61.80
83685;DHT22;73666;51.304;5.776;2024-03-02T10:53:30;11.00;62.20
83685;DHT22;73666;51.304;5.776;2024-03-02T10:58:34;11.00;62.20
83685;DHT22;73666;51.304;5.776;2024-03-02T11:03:36;11.10;62.20
83685;DHT22;73666;51.304;5.776;2024-03-02T11:08:41;11.10;62.00
83685;DHT22;73666;51.304;5.776;2024-03-02T11:13:49;11.10;61.60
83685;DHT22;73666;51.304;5.776;2024-03-02T11:18:52;11.10;61.40
83685;DHT22;73666;51.304;5.776;2024-03-02T11:23:53;11.10;60.50
83685;DHT22;73666;51.304;5.776;2024-03-02T11:28:54;11.10;60.70
83685;DHT22;73666;51.304;5.776;2024-03-02T11:33:57;11.30;61.30
83685;DHT22;73666;51.304;5.776;2024-03-02T11:39:18;11.50;61.30
83685;DHT22;73666;51.304;5.776;2024-03-02T11:44:19;11.50;61.00
83685;DHT22;73666;51.304;5.776;2024-03-02T11:49:42;11.60;60.90
83685;DHT22;73666;51.304;5.776;2024-03-02T11:54:45;11.70;60.30
83685;DHT22;73666;51.304;5.776;2024-03-02T11:59:47;11.70;60.10
83685;DHT22;73666;51.304;5.776;2024-03-02T12:04:49;11.90;60.20
83685;DHT22;73666;51.304;5.776;2024-03-02T12:10:00;12.00;60.20
83685;DHT22;73666;51.304;5.776;2024-03-02T12:15:04;12.50;60.00
83685;DHT22;73666;51.304;5.776;2024-03-02T12:20:07;12.90;59.40
83685;DHT22;73666;51.304;5.776;2024-03-02T12:25:09;13.00;59.50
83685;DHT22;73666;51.304;5.776;2024-03-02T12:30:12;13.20;59.30
83685;DHT22;73666;51.304;5.776;2024-03-02T12:35:14;13.50;58.60
83685;DHT22;73666;51.304;5.776;2024-03-02T12:40:17;13.50;57.70
83685;DHT22;73666;51.304;5.776;2024-03-02T12:45:20;13.70;58.30
83685;DHT22;73666;51.304;5.776;2024-03-02T12:50:24;13.80;57.50
83685;DHT22;73666;51.304;5.776;2024-03-02T12:55:25;13.50;56.50
83685;DHT22;73666;51.304;5.776;2024-03-02T13:00:26;13.10;57.00
83685;DHT22;73666;51.304;5.776;2024-03-02T13:05:30;13.10;57.60
83685;DHT22;73666;51.304;5.776;2024-03-02T13:10:31;13.30;57.70
83685;DHT22;73666;51.304;5.776;2024-03-02T13:15:33;13.50;57.30
83685;DHT22;73666;51.304;5.776;2024-03-02T13:20:35;13.80;57.30
83685;DHT22;73666;51.304;5.776;2024-03-02T13:25:36;13.90;56.90
83685;DHT22;73666;51.304;5.776;2024-03-02T13:30:37;13.90;56.70
83685;DHT22;73666;51.304;5.776;2024-03-02T13:35:37;13.80;56.90
83685;DHT22;73666;51.304;5.776;2024-03-02T13:40:38;13.90;57.30
83685;DHT22;73666;51.304;5.776;2024-03-02T13:45:39;14.10;57.20
83685;DHT22;73666;51.304;5.776;2024-03-02T13:50:40;14.50;56.80
83685;DHT22;73666;51.304;5.776;2024-03-02T13:55:41;14.70;56.40
83685;DHT22;73666;51.304;5.776;2024-03-02T14:00:42;14.80;56.10
83685;DHT22;73666;51.304;5.776;2024-03-02T14:05:47;14.90;55.90
83685;DHT22;73666;51.304;5.776;2024-03-02T14:10:49;15.00;55.60
83685;DHT22;73666;51.304;5.776;2024-03-02T14:15:50;15.00;55.30
83685;DHT22;73666;51.304;5.776;2024-03-02T14:20:51;14.90;55.70
83685;DHT22;73666;51.304;5.776;2024-03-02T14:25:53;14.60;55.50
83685;DHT22;73666;51.304;5.776;2024-03-02T14:30:54;14.10;56.30
83685;DHT22;73666;51.304;5.776;2024-03-02T14:35:55;13.90;56.80
83685;DHT22;73666;51.304;5.776;2024-03-02T14:40:56;14.00;57.00
83685;DHT22;73666;51.304;5.776;2024-03-02T14:45:57;14.20;57.30
83685;DHT22;73666;51.304;5.776;2024-03-02T14:50:59;14.10;56.90
83685;DHT22;73666;51.304;5.776;2024-03-02T14:56:00;14.10;57.10
83685;DHT22;73666;51.304;5.776;2024-03-02T15:01:01;14.20;57.20
83685;DHT22;73666;51.304;5.776;2024-03-02T15:06:02;14.20;57.20
83685;DHT22;73666;51.304;5.776;2024-03-02T15:11:05;14.30;57.30
83685;DHT22;73666;51.304;5.776;2024-03-02T15:16:06;14.40;57.40
83685;DHT22;73666;51.304;5.776;2024-03-02T15:21:07;14.50;56.80
83685;DHT22;73666;51.304;5.776;2024-03-02T15:26:07;14.50;56.80
83685;DHT22;73666;51.304;5.776;2024-03-02T15:31:08;14.50;56.80
83685;DHT22;73666;51.304;5.776;2024-03-02T15:36:09;14.50;57.20
83685;DHT22;73666;51.304;5.776;2024-03-02T15:41:10;14.50;57.10
83685;DHT22;73666;51.304;5.776;2024-03-02T15:46:10;14.30;57.40
83685;DHT22;73666;51.304;5.776;2024-03-02T15:51:11;14.20;57.40
83685;DHT22;73666;51.304;5.776;2024-03-02T15:56:12;14.10;57.90
83685;DHT22;73666;51.304;5.776;2024-03-02T16:01:13;13.90;58.20
83685;DHT22;73666;51.304;5.776;2024-03-02T16:06:14;13.90;58.40
83685;DHT22;73666;51.304;5.776;2024-03-02T16:11:15;13.80;58.60
83685;DHT22;73666;51.304;5.776;2024-03-02T16:16:16;13.70;59.00
83685;DHT22;73666;51.304;5.776;2024-03-02T16:21:17;13.70;59.10
83685;DHT22;73666;51.304;5.776;2024-03-02T16:26:18;13.60;59.30
83685;DHT22;73666;51.304;5.776;2024-03-02T16:31:19;13.50;59.50
83685;DHT22;73666;51.304;5.776;2024-03-02T16:36:20;13.30;59.80
83685;DHT22;73666;51.304;5.776;2024-03-02T16:41:20;13.10;60.00
83685;DHT22;73666;51.304;5.776;2024-03-02T16:46:21;13.00;60.30
83685;DHT22;73666;51.304;5.776;2024-03-02T16:51:22;12.90;60.60
83685;DHT22;73666;51.304;5.776;2024-03-02T16:56:23;12.80;60.80
83685;DHT22;73666;51.304;5.776;2024-03-02T17:01:26;12.70;60.90
83685;DHT22;73666;51.304;5.776;2024-03-02T17:06:27;12.70;61.20
83685;DHT22;73666;51.304;5.776;2024-03-02T17:11:29;12.60;61.40
83685;DHT22;73666;51.304;5.776;2024-03-02T17:16:33;12.50;61.60
83685;DHT22;73666;51.304;5.776;2024-03-02T17:21:36;12.50;61.80
83685;DHT22;73666;51.304;5.776;2024-03-02T17:26:37;12.30;62.10
83685;DHT22;73666;51.304;5.776;2024-03-02T17:31:41;12.20;62.20
83685;DHT22;73666;51.304;5.776;2024-03-02T17:36:42;12.10;62.30
83685;DHT22;73666;51.304;5.776;2024-03-02T17:41:42;12.00;62.40
83685;DHT22;73666;51.304;5.776;2024-03-02T17:46:44;11.90;62.50
83685;DHT22;73666;51.304;5.776;2024-03-02T17:51:45;11.90;62.60
83685;DHT22;73666;51.304;5.776;2024-03-02T17:56:45;11.80;62.50
83685;DHT22;73666;51.304;5.776;2024-03-02T18:01:46;11.80;62.50
83685;DHT22;73666;51.304;5.776;2024-03-02T18:06:47;11.80;62.30
83685;DHT22;73666;51.304;5.776;2024-03-02T18:11:49;11.90;62.10
83685;DHT22;73666;51.304;5.776;2024-03-02T18:16:50;11.90;62.10
83685;DHT22;73666;51.304;5.776;2024-03-02T18:21:50;11.90;62.10
83685;DHT22;73666;51.304;5.776;2024-03-02T18:26:52;11.90;62.10
83685;DHT22;73666;51.304;5.776;2024-03-02T18:31:53;11.90;62.10
83685;DHT22;73666;51.304;5.776;2024-03-02T18:36:54;12.00;62.00
83685;DHT22;73666;51.304;5.776;2024-03-02T18:41:55;11.90;62.20
83685;DHT22;73666;51.304;5.776;2024-03-02T18:46:56;11.90;62.30
83685;DHT22;73666;51.304;5.776;2024-03-02T18:51:57;11.90;62.50
83685;DHT22;73666;51.304;5.776;2024-03-02T18:57:02;11.90;62.70
83685;DHT22;73666;51.304;5.776;2024-03-02T19:02:04;11.90;62.80
83685;DHT22;73666;51.304;5.776;2024-03-02T19:07:08;11.80;62.90
83685;DHT22;73666;51.304;5.776;2024-03-02T19:12:11;11.70;62.90
83685;DHT22;73666;51.304;5.776;2024-03-02T19:17:12;11.70;62.80
83685;DHT22;73666;51.304;5.776;2024-03-02T19:22:13;11.50;62.90
83685;DHT22;73666;51.304;5.776;2024-03-02T19:27:19;11.40;63.00
83685;DHT22;73666;51.304;5.776;2024-03-02T19:32:21;11.30;63.20
83685;DHT22;73666;51.304;5.776;2024-03-02T19:37:23;11.20;63.20
83685;DHT22;73666;51.304;5.776;2024-03-02T19:42:25;11.20;63.20
83685;DHT22;73666;51.304;5.776;2024-03-02T19:47:28;11.20;63.30
83685;DHT22;73666;51.304;5.776;2024-03-02T19:52:38;11.10;63.40
83685;DHT22;73666;51.304;5.776;2024-03-02T19:57:39;11.10;63.40
83685;DHT22;73666;51.304;5.776;2024-03-02T20:02:49;11.10;63.40
83685;DHT22;73666;51.304;5.776;2024-03-02T20:07:50;11.00;63.60
83685;DHT22;73666;51.304;5.776;2024-03-02T20:12:52;10.90;63.70
83685;DHT22;73666;51.304;5.776;2024-03-02T20:17:54;10.90;63.90
83685;DHT22;73666;51.304;5.776;2024-03-02T20:22:55;11.00;63.90
83685;DHT22;73666;51.304;5.776;2024-03-02T20:27:56;11.00;63.80
83685;DHT22;73666;51.304;5.776;2024-03-02T20:33:00;11.10;63.80
83685;DHT22;73666;51.304;5.776;2024-03-02T20:38:02;11.10;63.70
83685;DHT22;73666;51.304;5.776;2024-03-02T20:43:05;11.10;63.70
83685;DHT22;73666;51.304;5.776;2024-03-02T20:48:07;11.10;63.80
83685;DHT22;73666;51.304;5.776;2024-03-02T20:53:17;11.00;63.80
83685;DHT22;73666;51.304;5.776;2024-03-02T20:58:20;10.90;64.00
83685;DHT22;73666;51.304;5.776;2024-03-02T21:03:25;10.80;64.10
83685;DHT22;73666;51.304;5.776;2024-03-02T21:08:26;10.60;64.20
83685;DHT22;73666;51.304;5.776;2024-03-02T21:13:27;10.50;64.40
83685;DHT22;73666;51.304;5.776;2024-03-02T21:18:27;10.50;64.50
83685;DHT22;73666;51.304;5.776;2024-03-02T21:23:28;10.40;64.60
83685;DHT22;73666;51.304;5.776;2024-03-02T21:28:30;10.40;64.80
83685;DHT22;73666;51.304;5.776;2024-03-02T21:33:31;10.30;64.90
83685;DHT22;73666;51.304;5.776;2024-03-02T21:38:35;10.40;65.00
83685;DHT22;73666;51.304;5.776;2024-03-02T21:43:36;10.40;65.00
83685;DHT22;73666;51.304;5.776;2024-03-02T21:48:39;10.30;65.10
83685;DHT22;73666;51.304;5.776;2024-03-02T21:53:41;10.20;65.30
83685;DHT22;73666;51.304;5.776;2024-03-02T21:58:43;10.20;65.50
83685;DHT22;73666;51.304;5.776;2024-03-02T22:03:44;10.30;65.50
83685;DHT22;73666;51.304;5.776;2024-03-02T22:08:48;10.30;65.50
83685;DHT22;73666;51.304;5.776;2024-03-02T22:13:48;10.20;65.70
83685;DHT22;73666;51.304;5.776;2024-03-02T22:18:49;10.10;65.70
83685;DHT22;73666;51.304;5.776;2024-03-02T22:23:50;10.00;66.00
83685;DHT22;73666;51.304;5.776;2024-03-02T22:28:51;10.00;66.10
83685;DHT22;73666;51.304;5.776;2024-03-02T22:33:52;10.10;66.00
83685;DHT22;73666;51.304;5.776;2024-03-02T22:38:53;10.10;65.90
83685;DHT22;73666;51.304;5.776;2024-03-02T22:43:55;10.10;65.90
83685;DHT22;73666;51.304;5.776;2024-03-02T22:49:00;10.10;65.90
83685;DHT22;73666;51.304;5.776;2024-03-02T22:54:05;10.10;65.90
83685;DHT22;73666;51.304;5.776;2024-03-02T22:59:06;10.10;65.80
83685;DHT22;73666;51.304;5.776;2024-03-02T23:04:08;10.10;66.00
83685;DHT22;73666;51.304;5.776;2024-03-02T23:09:09;10.10;66.10
83685;DHT22;73666;51.304;5.776;2024-03-02T23:14:12;10.20;65.90
83685;DHT22;73666;51.304;5.776;2024-03-02T23:19:13;10.20;65.80
83685;DHT22;73666;51.304;5.776;2024-03-02T23:24:21;10.30;65.60
83685;DHT22;73666;51.304;5.776;2024-03-02T23:29:27;10.40;65.50
83685;DHT22;73666;51.304;5.776;2024-03-02T23:34:28;10.40;65.20
83685;DHT22;73666;51.304;5.776;2024-03-02T23:39:30;10.40;65.10
83685;DHT22;73666;51.304;5.776;2024-03-02T23:45:00;10.40;65.10
83685;DHT22;73666;51.304;5.776;2024-03-02T23:50:03;10.10;65.40
83685;DHT22;73666;51.304;5.776;2024-03-02T23:55:12;10.10;65.70
